sensor_id;sensor_type;location;lat;lon;timestamp;pressure;altitude;pressure_sealevel;temperature;humidity
40998;BME280;26740;45.944;12.480;2022-08-14T00:00:37;100865.47;;;16.39;100.00
40998;BME280;26740;45.944;12.480;2022-08-14T00:03:03;100860.47;;;16.36;100.00
40998;BME280;26740;45.944;12.480;2022-08-14T00:05:28;100849.03;;;16.27;100.00
40998;BME280;26740;45.944;12.480;2022-08-14T00:07:54;100848.78;;;16.24;100.00
40998;BME280;26740;45.944;12.480;2022-08-14T00:10:21;100841.22;;;16.19;100.00
40998;BME280;26740;45.944;12.480;2022-08-14T00:12:53;100842.94;;;16.15;100.00
40998;BME280;26740;45.944;12.480;2022-08-14T00:15:23;100832.56;;;16.16;100.00
40998;BME280;26740;45.944;12.480;2022-08-14T00:17:50;100840.44;;;16.14;100.00
40998;BME280;26740;45.944;12.480;2022-08-14T00:20:18;100830.94;;;16.09;100.00
40998;BME280;26740;45.944;12.480;2022-08-14T00:22:46;100834.88;;;16.08;100.00
40998;BME280;26740;45.944;12.480;2022-08-14T00:25:11;100832.88;;;16.09;100.00
40998;BME280;26740;45.944;12.480;2022-08-14T00:27:38;100823.66;;;16.08;100.00
40998;BME280;26740;45.944;12.480;2022-08-14T00:30:08;100822.84;;;16.08;100.00
40998;BME280;26740;45.944;12.480;2022-08-14T00:32:35;100833.16;;;16.13;100.00
40998;BME280;26740;45.944;12.480;2022-08-14T00:35:03;100833.75;;;16.44;100.00
40998;BME280;26740;45.944;12.480;2022-08-14T00:37:30;100828.03;;;16.25;100.00
40998;BME280;26740;45.944;12.480;2022-08-14T00:39:56;100831.75;;;16.15;100.00
40998;BME280;26740;45.944;12.480;2022-08-14T00:42:22;100823.34;;;16.15;100.00
40998;BME280;26740;45.944;12.480;2022-08-14T00:44:49;100823.03;;;16.22;100.00
40998;BME280;26740;45.944;12.480;2022-08-14T00:47:16;100826.09;;;16.20;100.00
40998;BME280;26740;45.944;12.480;2022-08-14T00:49:44;100821.66;;;16.14;100.00
40998;BME280;26740;45.944;12.480;2022-08-14T00:52:15;100823.66;;;16.08;100.00
40998;BME280;26740;45.944;12.480;2022-08-14T00:54:43;100817.19;;;16.13;100.00
40998;BME280;26740;45.944;12.480;2022-08-14T00:57:10;100810.75;;;16.13;100.00
40998;BME280;26740;45.944;12.480;2022-08-14T00:59:35;100809.16;;;16.01;100.00
40998;BME280;26740;45.944;12.480;2022-08-14T01:02:02;100801.97;;;15.85;100.00
40998;BME280;26740;45.944;12.480;2022-08-14T01:04:32;100800.06;;;15.70;100.00
40998;BME280;26740;45.944;12.480;2022-08-14T01:06:58;100799.00;;;15.55;100.00
40998;BME280;26740;45.944;12.480;2022-08-14T01:09:25;100794.25;;;15.51;100.00
40998;BME280;26740;45.944;12.480;2022-08-14T01:11:52;100795.66;;;15.53;100.00
40998;BME280;26740;45.944;12.480;2022-08-14T01:14:19;100792.09;;;15.38;100.00
40998;BME280;26740;45.944;12.480;2022-08-14T01:16:47;100797.16;;;15.35;100.00
40998;BME280;26740;45.944;12.480;2022-08-14T01:19:13;100795.75;;;15.33;100.00
40998;BME280;26740;45.944;12.480;2022-08-14T01:21:58;100795.50;;;15.19;100.00
40998;BME280;26740;45.944;12.480;2022-08-14T01:24:24;100781.81;;;15.17;100.00
40998;BME280;26740;45.944;12.480;2022-08-14T01:26:51;100787.97;;;15.25;100.00
40998;BME280;26740;45.944;12.480;2022-08-14T01:29:18;100784.91;;;15.16;100.00
40998;BME280;26740;45.944;12.480;2022-08-14T01:31:45;100788.03;;;15.04;100.00
40998;BME280;26740;45.944;12.480;2022-08-14T01:34:12;100781.88;;;15.02;100.00
40998;BME280;26740;45.944;12.480;2022-08-14T01:36:38;100782.97;;;15.06;100.00
40998;BME280;26740;45.944;12.480;2022-08-14T01:39:10;100775.09;;;15.24;100.00
40998;BME280;26740;45.944;12.480;2022-08-14T01:41:36;100780.28;;;15.51;100.00
40998;BME280;26740;45.944;12.480;2022-08-14T01:44:10;100780.00;;;15.47;100.00
40998;BME280;26740;45.944;12.480;2022-08-14T01:46:39;100776.63;;;15.55;100.00
40998;BME280;26740;45.944;12.480;2022-08-14T01:49:08;100769.41;;;15.44;100.00
40998;BME280;26740;45.944;12.480;2022-08-14T01:51:36;100765.84;;;15.28;100.00
40998;BME280;26740;45.944;12.480;2022-08-14T01:54:08;100766.16;;;15.22;100.00
40998;BME280;26740;45.944;12.480;2022-08-14T01:56:36;100766.16;;;15.22;100.00
40998;BME280;26740;45.944;12.480;2022-08-14T02:01:42;100767.81;;;15.23;100.00
40998;BME280;26740;45.944;12.480;2022-08-14T02:04:08;100758.88;;;15.15;100.00
40998;BME280;26740;45.944;12.480;2022-08-14T02:06:36;100757.00;;;15.01;100.00
40998;BME280;26740;45.944;12.480;2022-08-14T02:09:06;100754.22;;;14.90;100.00
40998;BME280;26740;45.944;12.480;2022-08-14T02:11:33;100753.41;;;14.85;100.00
40998;BME280;26740;45.944;12.480;2022-08-14T02:14:05;100748.94;;;14.78;100.00
40998;BME280;26740;45.944;12.480;2022-08-14T02:16:34;100744.47;;;14.77;100.00
40998;BME280;26740;45.944;12.480;2022-08-14T02:19:12;100741.97;;;14.76;100.00
40998;BME280;26740;45.944;12.480;2022-08-14T02:21:42;100746.41;;;14.77;100.00
40998;BME280;26740;45.944;12.480;2022-08-14T02:24:09;100735.25;;;14.77;100.00
40998;BME280;26740;45.944;12.480;2022-08-14T02:26:38;100736.38;;;14.81;100.00
40998;BME280;26740;45.944;12.480;2022-08-14T02:31:32;100729.38;;;14.78;100.00
40998;BME280;26740;45.944;12.480;2022-08-14T02:34:03;100721.56;;;14.75;100.00
40998;BME280;26740;45.944;12.480;2022-08-14T02:36:29;100720.72;;;14.75;100.00
40998;BME280;26740;45.944;12.480;2022-08-14T02:38:54;100718.78;;;14.75;100.00
40998;BME280;26740;45.944;12.480;2022-08-14T02:41:21;100724.03;;;14.87;100.00
40998;BME280;26740;45.944;12.480;2022-08-14T02:43:47;100727.97;;;14.81;100.00
40998;BME280;26740;45.944;12.480;2022-08-14T02:46:14;100720.44;;;14.76;100.00
40998;BME280;26740;45.944;12.480;2022-08-14T02:48:42;100719.31;;;14.77;100.00
40998;BME280;26740;45.944;12.480;2022-08-14T02:51:11;100715.41;;;14.78;100.00
40998;BME280;26740;45.944;12.480;2022-08-14T02:53:42;100714.28;;;14.79;100.00
40998;BME280;26740;45.944;12.480;2022-08-14T02:56:13;100713.41;;;14.89;100.00
40998;BME280;26740;45.944;12.480;2022-08-14T02:58:42;100717.91;;;14.80;100.00
40998;BME280;26740;45.944;12.480;2022-08-14T03:01:13;100710.41;;;14.50;100.00
40998;BME280;26740;45.944;12.480;2022-08-14T03:03:40;100711.56;;;14.44;100.00
40998;BME280;26740;45.944;12.480;2022-08-14T03:06:07;100710.44;;;14.39;100.00
40998;BME280;26740;45.944;12.480;2022-08-14T03:08:36;100701.22;;;14.34;100.00
40998;BME280;26740;45.944;12.480;2022-08-14T03:11:08;100704.84;;;14.34;100.00
40998;BME280;26740;45.944;12.480;2022-08-14T03:13:36;100704.81;;;14.50;100.00
40998;BME280;26740;45.944;12.480;2022-08-14T03:16:04;100707.63;;;14.55;100.00
40998;BME280;26740;45.944;12.480;2022-08-14T03:18:30;100709.28;;;14.61;100.00
40998;BME280;26740;45.944;12.480;2022-08-14T03:20:57;100710.69;;;14.69;100.00
40998;BME280;26740;45.944;12.480;2022-08-14T03:23:23;100718.25;;;14.68;100.00
40998;BME280;26740;45.944;12.480;2022-08-14T03:25:49;100712.09;;;14.61;100.00
40998;BME280;26740;45.944;12.480;2022-08-14T03:28:15;100702.03;;;14.50;100.00
40998;BME280;26740;45.944;12.480;2022-08-14T03:30:40;100706.78;;;14.49;100.00
40998;BME280;26740;45.944;12.480;2022-08-14T03:33:08;100710.13;;;14.46;100.00
40998;BME280;26740;45.944;12.480;2022-08-14T03:35:34;100709.31;;;14.35;100.00
40998;BME280;26740;45.944;12.480;2022-08-14T03:38:06;100703.75;;;14.25;100.00
40998;BME280;26740;45.944;12.480;2022-08-14T03:40:38;100700.66;;;14.27;100.00
40998;BME280;26740;45.944;12.480;2022-08-14T03:43:06;100701.22;;;14.23;100.00
40998;BME280;26740;45.944;12.480;2022-08-14T03:45:34;100699.56;;;14.28;100.00
40998;BME280;26740;45.944;12.480;2022-08-14T03:48:10;100696.78;;;14.28;100.00
40998;BME280;26740;45.944;12.480;2022-08-14T03:50:42;100698.16;;;14.15;100.00
40998;BME280;26740;45.944;12.480;2022-08-14T03:53:09;100702.91;;;14.09;100.00
40998;BME280;26740;45.944;12.480;2022-08-14T03:55:36;100707.13;;;14.07;100.00
40998;BME280;26740;45.944;12.480;2022-08-14T03:58:06;100713.53;;;14.22;100.00
40998;BME280;26740;45.944;12.480;2022-08-14T04:00:33;100714.63;;;14.37;100.00
40998;BME280;26740;45.944;12.480;2022-08-14T04:02:59;100709.03;;;14.42;100.00
40998;BME280;26740;45.944;12.480;2022-08-14T04:05:25;100716.00;;;14.50;100.00
40998;BME280;26740;45.944;12.480;2022-08-14T04:07:51;100708.72;;;14.54;100.00
40998;BME280;26740;45.944;12.480;2022-08-14T04:10:16;100708.16;;;14.52;100.00
40998;BME280;26740;45.944;12.480;2022-08-14T04:12:42;100709.28;;;14.56;100.00
40998;BME280;26740;45.944;12.480;2022-08-14T04:15:08;100702.59;;;14.67;100.00
40998;BME280;26740;45.944;12.480;2022-08-14T04:17:35;100708.16;;;14.72;100.00
40998;BME280;26740;45.944;12.480;2022-08-14T04:20:01;100700.00;;;14.86;100.00
40998;BME280;26740;45.944;12.480;2022-08-14T04:22:30;100705.59;;;14.86;100.00
40998;BME280;26740;45.944;12.480;2022-08-14T04:24:57;100712.06;;;14.76;100.00
40998;BME280;26740;45.944;12.480;2022-08-14T04:27:24;100710.97;;;14.67;100.00
40998;BME280;26740;45.944;12.480;2022-08-14T04:29:51;100711.22;;;14.81;100.00
40998;BME280;26740;45.944;12.480;2022-08-14T04:32:18;100707.19;;;15.08;100.00
40998;BME280;26740;45.944;12.480;2022-08-14T04:34:44;100711.31;;;15.21;100.00
40998;BME280;26740;45.944;12.480;2022-08-14T04:37:10;100709.66;;;15.20;100.00
40998;BME280;26740;45.944;12.480;2022-08-14T04:39:55;100708.25;;;15.17;100.00
40998;BME280;26740;45.944;12.480;2022-08-14T04:42:40;100713.53;;;15.29;100.00
40998;BME280;26740;45.944;12.480;2022-08-14T04:45:26;100714.22;;;15.55;100.00
40998;BME280;26740;45.944;12.480;2022-08-14T04:47:57;100702.06;;;15.70;100.00
40998;BME280;26740;45.944;12.480;2022-08-14T04:50:45;100703.47;;;15.78;100.00
40998;BME280;26740;45.944;12.480;2022-08-14T04:53:18;100704.09;;;16.04;100.00
40998;BME280;26740;45.944;12.480;2022-08-14T04:55:46;100704.50;;;16.21;100.00
40998;BME280;26740;45.944;12.480;2022-08-14T04:58:14;100702.72;;;16.60;100.00
40998;BME280;26740;45.944;12.480;2022-08-14T05:00:40;100701.56;;;16.66;100.00
40998;BME280;26740;45.944;12.480;2022-08-14T05:03:07;100698.75;;;16.90;100.00
40998;BME280;26740;45.944;12.480;2022-08-14T05:05:33;100695.13;;;17.33;100.00
40998;BME280;26740;45.944;12.480;2022-08-14T05:08:09;100692.50;;;18.12;100.00
40998;BME280;26740;45.944;12.480;2022-08-14T05:10:41;100693.63;;;19.05;100.00
40998;BME280;26740;45.944;12.480;2022-08-14T05:13:08;100681.19;;;19.70;100.00
40998;BME280;26740;45.944;12.480;2022-08-14T05:15:36;100681.59;;;20.54;100.00
40998;BME280;26740;45.944;12.480;2022-08-14T05:18:06;100686.56;;;21.37;100.00
40998;BME280;26740;45.944;12.480;2022-08-14T05:20:41;100696.25;;;22.06;100.00
40998;BME280;26740;45.944;12.480;2022-08-14T05:23:10;100688.56;;;22.41;100.00
40998;BME280;26740;45.944;12.480;2022-08-14T05:25:36;100690.59;;;22.79;100.00
40998;BME280;26740;45.944;12.480;2022-08-14T05:28:17;100689.53;;;23.31;100.00
40998;BME280;26740;45.944;12.480;2022-08-14T05:30:49;100688.16;;;23.37;100.00
40998;BME280;26740;45.944;12.480;2022-08-14T05:33:18;100686.16;;;23.59;100.00
40998;BME280;26740;45.944;12.480;2022-08-14T05:35:46;100687.13;;;24.38;100.00
40998;BME280;26740;45.944;12.480;2022-08-14T05:38:15;100697.19;;;24.69;100.00
40998;BME280;26740;45.944;12.480;2022-08-14T05:40:42;100701.50;;;25.25;100.00
40998;BME280;26740;45.944;12.480;2022-08-14T05:43:09;100713.22;;;25.88;100.00
40998;BME280;26740;45.944;12.480;2022-08-14T05:45:35;100707.94;;;26.59;100.00
40998;BME280;26740;45.944;12.480;2022-08-14T05:48:01;100705.13;;;26.91;90.92
40998;BME280;26740;45.944;12.480;2022-08-14T05:50:27;100713.66;;;27.07;76.52
40998;BME280;26740;45.944;12.480;2022-08-14T05:52:53;100717.00;;;27.25;73.76
40998;BME280;26740;45.944;12.480;2022-08-14T05:55:20;100711.81;;;27.82;72.70
40998;BME280;26740;45.944;12.480;2022-08-14T05:58:01;100711.50;;;28.46;60.17
40998;BME280;26740;45.944;12.480;2022-08-14T06:00:39;100714.59;;;28.80;61.69
40998;BME280;26740;45.944;12.480;2022-08-14T06:03:14;100715.13;;;29.08;59.73
40998;BME280;26740;45.944;12.480;2022-08-14T06:05:44;100715.94;;;29.09;57.48
40998;BME280;26740;45.944;12.480;2022-08-14T06:08:24;100720.44;;;29.33;56.34
40998;BME280;26740;45.944;12.480;2022-08-14T06:10:51;100719.13;;;29.54;51.38
40998;BME280;26740;45.944;12.480;2022-08-14T06:13:17;100720.78;;;29.81;48.95
40998;BME280;26740;45.944;12.480;2022-08-14T06:15:44;100720.03;;;30.18;49.59
40998;BME280;26740;45.944;12.480;2022-08-14T06:18:10;100714.84;;;30.65;52.20
40998;BME280;26740;45.944;12.480;2022-08-14T06:20:37;100717.56;;;30.51;47.09
40998;BME280;26740;45.944;12.480;2022-08-14T06:23:04;100715.16;;;30.22;49.28
40998;BME280;26740;45.944;12.480;2022-08-14T06:25:30;100720.06;;;30.22;48.69
40998;BME280;26740;45.944;12.480;2022-08-14T06:27:56;100715.16;;;29.62;51.75
40998;BME280;26740;45.944;12.480;2022-08-14T06:30:24;100716.13;;;28.97;53.04
40998;BME280;26740;45.944;12.480;2022-08-14T06:32:51;100710.19;;;29.59;54.11
40998;BME280;26740;45.944;12.480;2022-08-14T06:35:17;100716.19;;;30.07;47.30
40998;BME280;26740;45.944;12.480;2022-08-14T06:37:49;100715.38;;;29.76;47.94
40998;BME280;26740;45.944;12.480;2022-08-14T06:40:25;100713.28;;;30.34;49.30
40998;BME280;26740;45.944;12.480;2022-08-14T06:42:51;100702.91;;;30.59;47.31
40998;BME280;26740;45.944;12.480;2022-08-14T06:45:18;100698.63;;;28.98;52.61
40998;BME280;26740;45.944;12.480;2022-08-14T06:47:46;100692.84;;;29.75;49.97
40998;BME280;26740;45.944;12.480;2022-08-14T06:50:15;100701.38;;;30.69;46.30
40998;BME280;26740;45.944;12.480;2022-08-14T06:52:41;100700.19;;;30.74;46.67
40998;BME280;26740;45.944;12.480;2022-08-14T06:55:09;100700.19;;;30.02;49.45
40998;BME280;26740;45.944;12.480;2022-08-14T06:57:42;100698.66;;;29.02;49.03
40998;BME280;26740;45.944;12.480;2022-08-14T07:00:21;100700.75;;;28.82;49.62
40998;BME280;26740;45.944;12.480;2022-08-14T07:02:48;100698.03;;;29.12;49.91
40998;BME280;26740;45.944;12.480;2022-08-14T07:05:33;100697.94;;;29.58;50.49
40998;BME280;26740;45.944;12.480;2022-08-14T07:08:19;100689.38;;;29.32;49.86
40998;BME280;26740;45.944;12.480;2022-08-14T07:10:50;100691.06;;;29.36;49.59
40998;BME280;26740;45.944;12.480;2022-08-14T07:13:18;100697.22;;;30.63;47.25
40998;BME280;26740;45.944;12.480;2022-08-14T07:15:45;100691.03;;;30.57;47.77
40998;BME280;26740;45.944;12.480;2022-08-14T07:18:19;100694.50;;;31.22;48.93
40998;BME280;26740;45.944;12.480;2022-08-14T07:20:44;100688.75;;;30.36;46.22
40998;BME280;26740;45.944;12.480;2022-08-14T07:23:11;100685.50;;;30.04;47.49
40998;BME280;26740;45.944;12.480;2022-08-14T07:25:39;100698.78;;;30.94;43.05
40998;BME280;26740;45.944;12.480;2022-08-14T07:28:19;100706.25;;;31.62;43.73
40998;BME280;26740;45.944;12.480;2022-08-14T07:30:49;100701.34;;;31.07;47.08
40998;BME280;26740;45.944;12.480;2022-08-14T07:33:14;100696.94;;;30.75;44.28
40998;BME280;26740;45.944;12.480;2022-08-14T07:35:40;100691.81;;;30.54;47.07
40998;BME280;26740;45.944;12.480;2022-08-14T07:38:06;100690.03;;;30.09;46.92
40998;BME280;26740;45.944;12.480;2022-08-14T07:40:33;100694.34;;;29.92;48.28
40998;BME280;26740;45.944;12.480;2022-08-14T07:43:00;100690.31;;;29.69;45.81
40998;BME280;26740;45.944;12.480;2022-08-14T07:45:27;100692.34;;;29.39;46.94
40998;BME280;26740;45.944;12.480;2022-08-14T07:47:53;100698.75;;;29.59;44.17
40998;BME280;26740;45.944;12.480;2022-08-14T07:50:22;100703.78;;;29.96;45.21
40998;BME280;26740;45.944;12.480;2022-08-14T07:52:48;100698.31;;;29.83;43.72
40998;BME280;26740;45.944;12.480;2022-08-14T07:55:16;100714.16;;;31.24;43.55
40998;BME280;26740;45.944;12.480;2022-08-14T07:57:44;100706.84;;;30.44;44.98
40998;BME280;26740;45.944;12.480;2022-08-14T08:00:13;100697.47;;;30.47;46.34
40998;BME280;26740;45.944;12.480;2022-08-14T08:02:41;100701.00;;;29.73;46.15
40998;BME280;26740;45.944;12.480;2022-08-14T08:05:09;100696.56;;;29.22;48.92
40998;BME280;26740;45.944;12.480;2022-08-14T08:07:37;100710.06;;;31.21;42.48
40998;BME280;26740;45.944;12.480;2022-08-14T08:10:18;100704.19;;;31.62;44.86
40998;BME280;26740;45.944;12.480;2022-08-14T08:13:19;100704.97;;;32.40;42.14
40998;BME280;26740;45.944;12.480;2022-08-14T08:15:54;100701.81;;;32.99;38.84
40998;BME280;26740;45.944;12.480;2022-08-14T08:18:22;100703.69;;;32.12;43.29
40998;BME280;26740;45.944;12.480;2022-08-14T08:20:50;100707.13;;;32.82;38.97
40998;BME280;26740;45.944;12.480;2022-08-14T08:23:19;100714.53;;;32.94;37.85
40998;BME280;26740;45.944;12.480;2022-08-14T08:25:48;100717.41;;;33.66;38.60
40998;BME280;26740;45.944;12.480;2022-08-14T08:28:22;100719.56;;;34.54;35.79
40998;BME280;26740;45.944;12.480;2022-08-14T08:31:05;100716.19;;;33.53;38.32
40998;BME280;26740;45.944;12.480;2022-08-14T08:33:33;100717.47;;;34.58;34.49
40998;BME280;26740;45.944;12.480;2022-08-14T08:36:05;100713.53;;;34.93;33.81
40998;BME280;26740;45.944;12.480;2022-08-14T08:38:32;100721.47;;;35.31;33.57
40998;BME280;26740;45.944;12.480;2022-08-14T08:40:59;100718.19;;;34.69;32.26
40998;BME280;26740;45.944;12.480;2022-08-14T08:43:31;100718.94;;;34.88;33.56
40998;BME280;26740;45.944;12.480;2022-08-14T08:46:11;100707.00;;;34.86;34.05
40998;BME280;26740;45.944;12.480;2022-08-14T08:48:50;100716.97;;;36.06;32.28
40998;BME280;26740;45.944;12.480;2022-08-14T08:51:34;100722.94;;;35.92;32.40
40998;BME280;26740;45.944;12.480;2022-08-14T08:54:08;100721.44;;;36.45;33.01
40998;BME280;26740;45.944;12.480;2022-08-14T08:56:42;100716.75;;;36.24;32.09
40998;BME280;26740;45.944;12.480;2022-08-14T09:01:54;100710.19;;;36.78;31.91
40998;BME280;26740;45.944;12.480;2022-08-14T09:04:59;100710.00;;;37.40;32.36
40998;BME280;26740;45.944;12.480;2022-08-14T09:07:14;100714.28;;;38.19;30.40
40998;BME280;26740;45.944;12.480;2022-08-14T09:09:40;100702.41;;;38.13;31.77
40998;BME280;26740;45.944;12.480;2022-08-14T09:12:18;100693.63;;;37.53;33.77
40998;BME280;26740;45.944;12.480;2022-08-14T09:14:45;100698.22;;;38.34;29.26
40998;BME280;26740;45.944;12.480;2022-08-14T09:17:13;100694.13;;;37.71;35.42
40998;BME280;26740;45.944;12.480;2022-08-14T09:19:39;100701.13;;;38.71;29.53
40998;BME280;26740;45.944;12.480;2022-08-14T09:22:06;100701.88;;;38.18;29.12
40998;BME280;26740;45.944;12.480;2022-08-14T09:24:32;100700.66;;;37.96;29.48
40998;BME280;26740;45.944;12.480;2022-08-14T09:26:58;100688.13;;;37.59;31.89
40998;BME280;26740;45.944;12.480;2022-08-14T09:29:24;100693.44;;;35.28;34.82
40998;BME280;26740;45.944;12.480;2022-08-14T09:31:53;100684.69;;;36.11;33.53
40998;BME280;26740;45.944;12.480;2022-08-14T09:45:08;100692.19;;;37.41;30.88
40998;BME280;26740;45.944;12.480;2022-08-14T09:47:45;100695.34;;;37.27;31.45
40998;BME280;26740;45.944;12.480;2022-08-14T09:50:47;100693.38;;;37.67;31.19
40998;BME280;26740;45.944;12.480;2022-08-14T09:53:35;100681.50;;;37.38;31.30
40998;BME280;26740;45.944;12.480;2022-08-14T09:56:03;100688.63;;;37.97;32.23
40998;BME280;26740;45.944;12.480;2022-08-14T09:58:43;100690.44;;;36.15;32.36
40998;BME280;26740;45.944;12.480;2022-08-14T10:01:12;100693.47;;;36.04;33.33
40998;BME280;26740;45.944;12.480;2022-08-14T10:03:53;100695.84;;;35.78;33.37
40998;BME280;26740;45.944;12.480;2022-08-14T10:06:24;100690.22;;;36.33;33.68
40998;BME280;26740;45.944;12.480;2022-08-14T10:09:10;100678.81;;;35.49;35.80
40998;BME280;26740;45.944;12.480;2022-08-14T10:11:37;100676.28;;;36.24;32.49
40998;BME280;26740;45.944;12.480;2022-08-14T10:16:42;100657.88;;;34.33;36.46
40998;BME280;26740;45.944;12.480;2022-08-14T10:19:10;100650.44;;;36.10;32.63
40998;BME280;26740;45.944;12.480;2022-08-14T10:21:42;100642.06;;;36.46;34.15
40998;BME280;26740;45.944;12.480;2022-08-14T10:24:09;100644.03;;;36.53;31.13
40998;BME280;26740;45.944;12.480;2022-08-14T10:26:36;100643.72;;;36.47;32.03
40998;BME280;26740;45.944;12.480;2022-08-14T10:29:07;100636.41;;;36.39;32.69
40998;BME280;26740;45.944;12.480;2022-08-14T10:31:36;100627.69;;;36.93;36.39
40998;BME280;26740;45.944;12.480;2022-08-14T10:34:05;100625.22;;;36.68;30.71
40998;BME280;26740;45.944;12.480;2022-08-14T10:36:44;100617.75;;;37.18;32.65
40998;BME280;26740;45.944;12.480;2022-08-14T10:39:21;100617.78;;;36.67;32.10
40998;BME280;26740;45.944;12.480;2022-08-14T10:41:48;100614.13;;;35.02;33.23
40998;BME280;26740;45.944;12.480;2022-08-14T10:44:15;100606.91;;;36.24;34.10
40998;BME280;26740;45.944;12.480;2022-08-14T10:46:49;100608.69;;;35.83;33.26
40998;BME280;26740;45.944;12.480;2022-08-14T10:49:24;100595.69;;;34.88;37.02
40998;BME280;26740;45.944;12.480;2022-08-14T10:52:08;100599.72;;;34.98;35.60
40998;BME280;26740;45.944;12.480;2022-08-14T10:54:40;100594.88;;;34.88;36.83
40998;BME280;26740;45.944;12.480;2022-08-14T10:57:27;100593.34;;;35.21;34.67
40998;BME280;26740;45.944;12.480;2022-08-14T10:59:54;100593.31;;;34.76;35.12
40998;BME280;26740;45.944;12.480;2022-08-14T11:05:02;100572.31;;;34.16;36.33
40998;BME280;26740;45.944;12.480;2022-08-14T11:07:30;100573.13;;;35.18;34.13
40998;BME280;26740;45.944;12.480;2022-08-14T11:09:58;100569.31;;;34.90;34.14
40998;BME280;26740;45.944;12.480;2022-08-14T11:12:26;100571.75;;;34.43;35.50
40998;BME280;26740;45.944;12.480;2022-08-14T11:14:54;100562.66;;;33.81;37.86
40998;BME280;26740;45.944;12.480;2022-08-14T11:17:22;100555.44;;;34.18;36.77
40998;BME280;26740;45.944;12.480;2022-08-14T11:19:57;100568.41;;;34.97;36.10
40998;BME280;26740;45.944;12.480;2022-08-14T11:22:27;100559.47;;;35.25;37.03
40998;BME280;26740;45.944;12.480;2022-08-14T11:25:02;100569.22;;;35.69;36.85
40998;BME280;26740;45.944;12.480;2022-08-14T11:27:31;100560.78;;;36.13;35.24
40998;BME280;26740;45.944;12.480;2022-08-14T11:30:05;100556.16;;;36.47;33.06
40998;BME280;26740;45.944;12.480;2022-08-14T11:32:32;100560.75;;;35.55;35.05
40998;BME280;26740;45.944;12.480;2022-08-14T11:34:59;100555.69;;;35.32;35.49
40998;BME280;26740;45.944;12.480;2022-08-14T11:37:27;100558.47;;;35.74;34.70
40998;BME280;26740;45.944;12.480;2022-08-14T11:40:00;100547.81;;;35.98;34.03
40998;BME280;26740;45.944;12.480;2022-08-14T11:42:27;100557.28;;;35.71;34.13
40998;BME280;26740;45.944;12.480;2022-08-14T11:44:59;100559.50;;;35.22;34.07
40998;BME280;26740;45.944;12.480;2022-08-14T11:47:31;100555.97;;;35.41;35.35
40998;BME280;26740;45.944;12.480;2022-08-14T11:49:58;100555.13;;;35.44;33.91
40998;BME280;26740;45.944;12.480;2022-08-14T11:52:33;100542.19;;;34.80;35.49
40998;BME280;26740;45.944;12.480;2022-08-14T11:55:07;100545.28;;;35.00;34.54
40998;BME280;26740;45.944;12.480;2022-08-14T11:57:33;100541.06;;;35.46;36.09
40998;BME280;26740;45.944;12.480;2022-08-14T12:00:09;100537.88;;;35.68;33.99
40998;BME280;26740;45.944;12.480;2022-08-14T12:02:36;100520.56;;;35.99;34.32
40998;BME280;26740;45.944;12.480;2022-08-14T12:05:13;100534.06;;;36.33;31.90
40998;BME280;26740;45.944;12.480;2022-08-14T12:07:49;100523.94;;;36.21;33.00
40998;BME280;26740;45.944;12.480;2022-08-14T12:10:18;100520.22;;;35.62;32.93
40998;BME280;26740;45.944;12.480;2022-08-14T12:12:46;100525.88;;;35.73;33.49
40998;BME280;26740;45.944;12.480;2022-08-14T12:15:13;100523.44;;;35.37;31.95
40998;BME280;26740;45.944;12.480;2022-08-14T12:17:47;100515.97;;;36.01;31.50
40998;BME280;26740;45.944;12.480;2022-08-14T12:20:13;100505.56;;;36.08;31.46
40998;BME280;26740;45.944;12.480;2022-08-14T12:22:44;100503.75;;;35.59;33.70
40998;BME280;26740;45.944;12.480;2022-08-14T12:25:17;100502.13;;;35.27;33.40
40998;BME280;26740;45.944;12.480;2022-08-14T12:27:46;100503.91;;;35.48;32.40
40998;BME280;26740;45.944;12.480;2022-08-14T12:30:41;100494.59;;;35.64;31.48
40998;BME280;26740;45.944;12.480;2022-08-14T12:33:24;100493.41;;;35.62;33.28
40998;BME280;26740;45.944;12.480;2022-08-14T12:35:52;100479.88;;;35.86;33.57
40998;BME280;26740;45.944;12.480;2022-08-14T12:38:32;100484.13;;;36.05;33.66
40998;BME280;26740;45.944;12.480;2022-08-14T12:40:58;100475.25;;;35.92;31.54
40998;BME280;26740;45.944;12.480;2022-08-14T12:43:26;100479.50;;;36.35;31.96
40998;BME280;26740;45.944;12.480;2022-08-14T12:45:53;100468.00;;;36.31;32.03
40998;BME280;26740;45.944;12.480;2022-08-14T12:48:20;100471.59;;;36.39;30.76
40998;BME280;26740;45.944;12.480;2022-08-14T12:50:47;100465.03;;;36.11;33.03
40998;BME280;26740;45.944;12.480;2022-08-14T12:53:17;100469.28;;;36.03;32.50
40998;BME280;26740;45.944;12.480;2022-08-14T12:55:44;100474.69;;;36.01;32.37
40998;BME280;26740;45.944;12.480;2022-08-14T12:58:11;100476.91;;;35.90;30.96
40998;BME280;26740;45.944;12.480;2022-08-14T13:00:46;100473.34;;;35.51;31.06
40998;BME280;26740;45.944;12.480;2022-08-14T13:03:25;100473.81;;;35.77;33.32
40998;BME280;26740;45.944;12.480;2022-08-14T13:05:52;100464.59;;;35.85;33.11
40998;BME280;26740;45.944;12.480;2022-08-14T13:08:19;100461.56;;;35.38;31.57
40998;BME280;26740;45.944;12.480;2022-08-14T13:10:48;100465.06;;;35.53;32.35
40998;BME280;26740;45.944;12.480;2022-08-14T13:13:18;100453.00;;;35.31;31.94